createdAt,value
2023-04-25T00:01:52.371Z,5.40
2023-04-25T00:04:19.295Z,4.82
2023-04-25T00:06:45.996Z,4.60
2023-04-25T00:09:12.469Z,5.00
2023-04-25T00:11:39.052Z,4.65
2023-04-25T00:14:05.817Z,4.95
2023-04-25T00:16:34.947Z,4.43
2023-04-25T00:19:03.287Z,4.30
2023-04-25T00:21:30.048Z,3.90
2023-04-25T00:23:57.042Z,4.18
2023-04-25T00:26:23.588Z,3.95
2023-04-25T00:28:50.057Z,3.95
2023-04-25T00:31:16.752Z,3.83
2023-04-25T00:33:43.282Z,3.63
2023-04-25T00:36:10.577Z,3.75
2023-04-25T00:38:37.099Z,3.92
2023-04-25T00:41:03.553Z,3.47
2023-04-25T00:43:31.332Z,3.88
2023-04-25T00:45:58.608Z,3.05
2023-04-25T00:48:25.117Z,3.08
2023-04-25T00:50:56.915Z,3.50
2023-04-25T00:53:24.726Z,3.80
2023-04-25T00:55:54.202Z,3.40
2023-04-25T00:58:22.823Z,3.50
2023-04-25T01:00:51.200Z,3.65
2023-04-25T01:03:21.405Z,3.45
2023-04-25T01:05:48.497Z,3.45
2023-04-25T01:08:15.407Z,3.15
2023-04-25T01:10:42.006Z,3.40
2023-04-25T01:13:08.778Z,3.63
2023-04-25T01:15:36.733Z,3.60
2023-04-25T01:18:04.805Z,3.88
2023-04-25T01:20:32.962Z,3.63
2023-04-25T01:22:59.463Z,3.40
2023-04-25T01:25:25.943Z,3.60
2023-04-25T01:27:52.796Z,3.47
2023-04-25T01:30:19.457Z,4.50
2023-04-25T01:32:47.163Z,2.95
2023-04-25T01:35:13.688Z,3.45
2023-04-25T01:37:43.884Z,3.20
2023-04-25T01:40:13.050Z,3.53
2023-04-25T01:42:41.652Z,3.67
2023-04-25T01:45:09.145Z,3.53
2023-04-25T01:47:36.242Z,3.85
2023-04-25T01:50:04.049Z,3.83
2023-04-25T01:52:31.780Z,3.88
2023-04-25T01:54:59.920Z,3.85
2023-04-25T01:57:28.051Z,3.80
2023-04-25T02:00:03.941Z,3.60
2023-04-25T02:02:39.702Z,3.78
2023-04-25T02:05:14.168Z,3.83
2023-04-25T02:07:42.667Z,3.58
2023-04-25T02:10:09.920Z,3.83
2023-04-25T02:12:43.558Z,3.83
2023-04-25T02:15:36.280Z,3.70
2023-04-25T02:18:17.089Z,3.63
2023-04-25T02:20:44.303Z,4.00
2023-04-25T02:23:10.780Z,4.30
2023-04-25T02:25:37.293Z,4.40
2023-04-25T02:28:03.958Z,4.45
2023-04-25T02:30:30.601Z,5.15
2023-04-25T02:32:57.607Z,5.18
2023-04-25T02:35:24.168Z,5.00
2023-04-25T02:37:52.976Z,5.43
2023-04-25T02:40:19.497Z,5.60
2023-04-25T02:42:46.825Z,5.57
2023-04-25T02:45:13.313Z,5.95
2023-04-25T02:47:40.090Z,6.03
2023-04-25T02:50:07.108Z,6.18
2023-04-25T02:52:33.920Z,6.60
2023-04-25T02:55:09.845Z,7.22
2023-04-25T02:57:37.090Z,6.22
2023-04-25T03:00:05.938Z,6.53
2023-04-25T03:02:32.617Z,7.68
2023-04-25T03:04:59.158Z,6.97
2023-04-25T03:07:26.034Z,7.30
2023-04-25T03:09:52.528Z,7.50
2023-04-25T03:12:19.208Z,7.07
2023-04-25T03:14:45.733Z,7.55
2023-04-25T03:17:12.202Z,7.57
2023-04-25T03:19:38.712Z,5.38
2023-04-25T03:22:05.209Z,7.50
2023-04-25T03:24:31.698Z,7.95
2023-04-25T03:26:58.675Z,7.95
2023-04-25T03:29:27.409Z,8.38
2023-04-25T03:31:55.544Z,7.68
2023-04-25T03:34:25.101Z,8.63
2023-04-25T03:36:52.430Z,8.38
2023-04-25T03:39:18.905Z,8.80
2023-04-25T03:41:49.867Z,9.00
2023-04-25T03:44:19.831Z,8.68
2023-04-25T03:46:46.611Z,8.93
2023-04-25T03:49:15.469Z,9.35
2023-04-25T03:52:01.530Z,9.57
2023-04-25T03:54:31.479Z,9.43
2023-04-25T03:57:03.894Z,9.60
2023-04-25T03:59:33.840Z,7.45
2023-04-25T04:02:00.569Z,9.40
2023-04-25T04:04:28.373Z,9.90
2023-04-25T04:06:55.257Z,9.80
2023-04-25T04:09:28.473Z,9.32
2023-04-25T04:11:56.387Z,9.32
2023-04-25T04:14:22.920Z,9.93
2023-04-25T04:16:52.078Z,9.32
2023-04-25T04:19:18.999Z,7.45
2023-04-25T04:21:52.996Z,8.93
2023-04-25T04:24:19.563Z,9.60
2023-04-25T04:26:54.299Z,7.68
2023-04-25T04:29:34.164Z,9.32
2023-04-25T04:32:10.272Z,9.25
2023-04-25T04:34:37.083Z,10.30
2023-04-25T04:37:04.043Z,9.80
2023-04-25T04:39:30.751Z,9.68
2023-04-25T04:42:15.524Z,9.77
2023-04-25T04:44:53.178Z,8.75
2023-04-25T04:47:38.441Z,9.32
2023-04-25T04:50:19.226Z,9.30
2023-04-25T04:53:05.026Z,8.95
2023-04-25T04:55:59.029Z,8.60
2023-04-25T04:58:37.510Z,8.32
2023-04-25T05:01:38.187Z,8.75
2023-04-25T05:04:23.145Z,8.68
2023-04-25T05:07:08.216Z,8.73
2023-04-25T05:09:54.835Z,8.05
2023-04-25T05:12:39.824Z,7.95
2023-04-25T05:15:20.705Z,8.40
2023-04-25T05:18:21.091Z,8.52
2023-04-25T05:21:01.860Z,8.20
2023-04-25T05:23:46.966Z,8.13
2023-04-25T05:26:32.408Z,8.82
2023-04-25T05:29:06.985Z,8.35
2023-04-25T05:31:56.568Z,8.63
2023-04-25T05:34:24.539Z,8.52
2023-04-25T05:37:00.495Z,8.10
2023-04-25T05:39:27.753Z,8.43
2023-04-25T05:42:23.253Z,7.63
2023-04-25T05:45:01.727Z,6.45
2023-04-25T05:47:36.793Z,6.53
2023-04-25T05:50:11.298Z,6.80
2023-04-25T05:52:48.578Z,6.22
2023-04-25T05:55:27.265Z,6.70
2023-04-25T05:57:54.416Z,5.95
2023-04-25T06:00:23.653Z,6.00
2023-04-25T06:02:51.016Z,6.05
2023-04-25T06:05:18.778Z,6.13
2023-04-25T06:07:47.037Z,6.00
2023-04-25T06:10:14.380Z,6.20
2023-04-25T06:12:40.848Z,6.20
2023-04-25T06:15:20.191Z,6.45
2023-04-25T06:17:54.411Z,6.57
2023-04-25T06:20:24.080Z,6.63
2023-04-25T06:22:52.697Z,6.70
2023-04-25T06:25:21.263Z,6.97
2023-04-25T06:27:47.783Z,7.15
2023-04-25T06:30:14.400Z,7.07
2023-04-25T06:32:40.988Z,7.68
2023-04-25T06:35:07.760Z,8.30
2023-04-25T06:37:34.446Z,7.90
2023-04-25T06:40:02.030Z,7.97
2023-04-25T06:42:29.253Z,7.57
2023-04-25T06:44:59.765Z,7.53
2023-04-25T06:47:28.525Z,6.97
2023-04-25T06:49:55.191Z,7.07
2023-04-25T06:52:22.155Z,7.53
2023-04-25T06:54:49.505Z,6.97
2023-04-25T06:57:35.955Z,7.55
2023-04-25T07:00:22.408Z,7.53
2023-04-25T07:02:49.080Z,7.60
2023-04-25T07:05:17.489Z,7.13
2023-04-25T07:07:46.033Z,7.60
2023-04-25T07:10:12.522Z,7.78
2023-04-25T07:12:39.115Z,7.63
2023-04-25T07:15:07.214Z,7.60
2023-04-25T07:17:35.254Z,6.95
2023-04-25T07:20:01.905Z,7.93
2023-04-25T07:22:28.886Z,7.00
2023-04-25T07:24:56.156Z,7.85
2023-04-25T07:27:25.363Z,7.13
2023-04-25T07:29:56.228Z,8.20
2023-04-25T07:32:24.286Z,8.73
2023-04-25T07:34:52.128Z,8.50
2023-04-25T07:37:19.840Z,7.55
2023-04-25T07:40:00.825Z,8.02
2023-04-25T07:42:27.779Z,8.27
2023-04-25T07:44:54.321Z,5.10
2023-04-25T07:47:20.903Z,4.30
2023-04-25T07:49:47.475Z,4.95
2023-04-25T07:52:14.745Z,5.05
2023-04-25T07:54:48.210Z,4.43
2023-04-25T07:57:19.404Z,5.78
2023-04-25T07:59:47.417Z,5.20
2023-04-25T08:02:14.445Z,4.97
2023-04-25T08:04:41.659Z,6.03
2023-04-25T08:07:10.605Z,5.18
2023-04-25T08:09:45.799Z,4.82
2023-04-25T08:12:21.624Z,5.05
2023-04-25T08:14:49.689Z,4.50
2023-04-25T08:17:16.469Z,4.80
2023-04-25T08:19:43.118Z,4.70
2023-04-25T08:22:17.101Z,4.50
2023-04-25T08:24:51.552Z,4.53
2023-04-25T08:27:19.912Z,3.97
2023-04-25T08:29:46.606Z,4.30
2023-04-25T08:32:14.232Z,4.60
2023-04-25T08:34:52.065Z,3.95
2023-04-25T08:37:20.668Z,4.07
2023-04-25T08:39:54.569Z,3.60
2023-04-25T08:42:42.196Z,3.90
2023-04-25T08:45:10.053Z,3.90
2023-04-25T08:47:40.951Z,3.75
2023-04-25T08:50:08.377Z,3.42
2023-04-25T08:52:44.926Z,3.22
2023-04-25T08:55:13.560Z,3.30
2023-04-25T09:02:06.190Z,3.05
2023-04-25T09:04:33.102Z,3.75
2023-04-25T09:06:59.836Z,3.25
2023-04-25T09:09:26.599Z,3.58
2023-04-25T09:11:55.237Z,3.13
2023-04-25T09:14:23.365Z,3.67
2023-04-25T09:17:13.212Z,3.90
2023-04-25T09:19:46.768Z,4.27
2023-04-25T09:22:21.848Z,3.60
2023-04-25T09:24:49.800Z,3.17
2023-04-25T09:27:23.934Z,3.80
2023-04-25T09:30:01.499Z,4.00
2023-04-25T09:32:33.243Z,3.83
2023-04-25T09:35:00.763Z,4.00
2023-04-25T09:37:30.696Z,3.30
2023-04-25T09:40:23.130Z,3.15
2023-04-25T09:42:58.873Z,3.08
2023-04-25T09:45:25.608Z,4.20
2023-04-25T09:47:57.031Z,4.78
2023-04-25T09:50:26.565Z,4.53
2023-04-25T09:53:08.353Z,3.83
2023-04-25T09:55:51.896Z,3.80
2023-04-25T09:58:18.532Z,3.47
2023-04-25T10:00:45.283Z,3.03
2023-04-25T10:03:26.588Z,2.97
2023-04-25T10:06:20.534Z,2.65
2023-04-25T10:08:52.260Z,3.00
2023-04-25T10:11:19.085Z,2.60
2023-04-25T10:13:46.642Z,2.83
2023-04-25T10:16:14.044Z,2.60
2023-04-25T10:18:40.513Z,3.10
2023-04-25T10:21:07.862Z,2.72
2023-04-25T10:23:37.957Z,3.22
2023-04-25T10:26:04.682Z,3.33
2023-04-25T10:28:57.779Z,2.95
2023-04-25T10:31:24.357Z,19.65
2023-04-25T10:33:51.220Z,9.43
2023-04-25T10:36:23.473Z,3.08
2023-04-25T10:38:54.080Z,3.25
2023-04-25T10:41:21.573Z,3.10
2023-04-25T10:43:49.382Z,3.47
2023-04-25T10:46:23.404Z,3.60
2023-04-25T10:48:50.818Z,3.00
2023-04-25T10:51:22.714Z,3.15
2023-04-25T10:54:03.093Z,3.55
2023-04-25T10:56:45.200Z,2.97
2023-04-25T10:59:12.599Z,3.15
2023-04-25T11:01:41.147Z,3.13
2023-04-25T11:04:20.751Z,3.08
2023-04-25T11:07:06.441Z,2.63
2023-04-25T11:09:35.936Z,3.25
2023-04-25T11:12:02.540Z,2.90
2023-04-25T11:14:29.058Z,2.53
2023-04-25T11:17:00.635Z,2.60
2023-04-25T11:19:28.758Z,2.60
2023-04-25T11:22:02.396Z,3.03
2023-04-25T11:24:33.354Z,3.22
2023-04-25T11:27:01.059Z,2.90
2023-04-25T11:29:28.051Z,2.80
2023-04-25T11:31:58.878Z,2.78
2023-04-25T11:34:26.301Z,3.15
2023-04-25T11:36:53.762Z,2.63
2023-04-25T11:39:20.782Z,2.85
2023-04-25T11:41:47.715Z,2.42
2023-04-25T11:44:17.372Z,2.40
2023-04-25T11:46:44.518Z,2.22
2023-04-25T11:49:11.031Z,2.15
2023-04-25T11:51:44.992Z,2.45
2023-04-25T11:56:45.472Z,2.65
2023-04-25T11:59:12.475Z,2.72
2023-04-25T12:01:40.980Z,3.03
2023-04-25T12:04:17.960Z,2.65
2023-04-25T12:06:49.205Z,2.85
2023-04-25T12:09:19.493Z,3.60
2023-04-25T12:11:47.779Z,2.88
2023-04-25T12:14:23.038Z,2.63
2023-04-25T12:16:49.666Z,3.63
2023-04-25T12:19:17.788Z,3.00
2023-04-25T12:21:57.100Z,2.60
2023-04-25T12:24:28.273Z,2.63
2023-04-25T12:27:06.041Z,2.22
2023-04-25T12:29:48.648Z,2.13
2023-04-25T12:32:16.373Z,2.13
2023-04-25T12:34:43.110Z,2.30
2023-04-25T12:37:10.010Z,2.30
2023-04-25T12:39:36.558Z,2.33
2023-04-25T12:42:04.562Z,2.70
2023-04-25T12:44:32.118Z,2.42
2023-04-25T12:46:58.849Z,2.40
2023-04-25T12:49:26.404Z,2.15
2023-04-25T12:51:52.901Z,2.20
2023-04-25T12:54:19.370Z,2.53
2023-04-25T12:56:45.861Z,1.90
2023-04-25T12:59:12.357Z,2.10
2023-04-25T13:01:39.596Z,2.35
2023-04-25T13:04:06.724Z,2.40
2023-04-25T13:06:33.323Z,2.35
2023-04-25T13:08:59.848Z,2.30
2023-04-25T13:11:26.564Z,2.45
2023-04-25T13:13:53.527Z,2.40
2023-04-25T13:16:21.972Z,2.70
2023-04-25T13:18:48.893Z,2.08
2023-04-25T13:21:15.551Z,1.80
2023-04-25T13:23:43.792Z,1.85
2023-04-25T13:26:10.450Z,2.10
2023-04-25T13:28:37.001Z,1.83
2023-04-25T13:31:03.481Z,1.88
2023-04-25T13:33:30.008Z,2.08
2023-04-25T13:35:58.054Z,2.08
2023-04-25T13:38:26.272Z,2.15
2023-04-25T13:40:55.766Z,2.20
2023-04-25T13:43:22.929Z,2.25
2023-04-25T13:45:50.557Z,2.25
2023-04-25T13:48:17.238Z,2.63
2023-04-25T13:50:43.792Z,2.30
2023-04-25T13:53:10.372Z,2.45
2023-04-25T13:55:37.790Z,2.90
2023-04-25T13:58:08.590Z,2.08
2023-04-25T14:00:38.854Z,3.60
2023-04-25T14:03:08.182Z,4.22
2023-04-25T14:05:39.076Z,2.58
2023-04-25T14:08:08.003Z,2.42
2023-04-25T14:10:34.969Z,2.90
2023-04-25T14:13:01.673Z,2.55
2023-04-25T14:15:28.212Z,2.38
2023-04-25T14:17:54.725Z,2.00
2023-04-25T14:20:22.294Z,2.42
2023-04-25T14:22:48.839Z,2.55
2023-04-25T14:25:15.384Z,2.38
2023-04-25T14:27:41.863Z,2.45
2023-04-25T14:30:10.424Z,2.47
2023-04-25T14:32:37.017Z,2.63
2023-04-25T14:35:03.557Z,2.40
2023-04-25T14:37:30.483Z,2.58
2023-04-25T14:39:57.041Z,2.22
2023-04-25T14:42:23.523Z,2.40
2023-04-25T14:44:50.073Z,2.70
2023-04-25T14:47:16.945Z,2.45
2023-04-25T14:49:43.533Z,2.42
2023-04-25T14:52:09.995Z,2.70
2023-04-25T14:54:36.545Z,2.55
2023-04-25T14:57:03.153Z,2.20
2023-04-25T14:59:29.630Z,2.35
2023-04-25T15:01:58.395Z,2.70
2023-04-25T15:04:26.208Z,2.15
2023-04-25T15:06:53.032Z,2.13
2023-04-25T15:09:20.375Z,2.90
2023-04-25T15:11:46.851Z,2.28
2023-04-25T15:14:13.317Z,2.17
2023-04-25T15:16:39.845Z,2.22
2023-04-25T15:19:06.777Z,2.10
2023-04-25T15:21:33.330Z,2.40
2023-04-25T15:23:59.806Z,2.45
2023-04-25T15:26:26.439Z,2.30
2023-04-25T15:28:53.422Z,2.38
2023-04-25T15:31:20.135Z,2.35
2023-04-25T15:33:46.673Z,2.30
2023-04-25T15:36:13.183Z,2.35
2023-04-25T15:38:40.540Z,2.00
2023-04-25T15:41:07.276Z,2.42
2023-04-25T15:43:36.619Z,2.20
2023-04-25T15:46:03.221Z,2.28
2023-04-25T15:48:29.714Z,2.05
2023-04-25T15:50:56.229Z,2.22
2023-04-25T15:53:22.715Z,2.08
2023-04-25T15:55:49.296Z,1.90
2023-04-25T15:58:15.946Z,1.90
2023-04-25T16:00:43.311Z,2.58
2023-04-25T16:03:09.991Z,2.60
2023-04-25T16:05:37.429Z,2.05
2023-04-25T16:08:04.603Z,2.30
2023-04-25T16:10:31.086Z,2.47
2023-04-25T16:12:57.565Z,2.53
2023-04-25T16:15:24.509Z,2.58
2023-04-25T16:17:51.120Z,2.00
2023-04-25T16:20:17.713Z,2.35
2023-04-25T16:22:44.693Z,2.30
2023-04-25T16:25:12.135Z,2.15
2023-04-25T16:27:39.375Z,2.13
2023-04-25T16:30:08.196Z,2.22
2023-04-25T16:32:35.201Z,2.38
2023-04-25T16:35:02.046Z,2.22
2023-04-25T16:37:28.511Z,2.10
2023-04-25T16:39:54.982Z,2.05
2023-04-25T16:42:21.533Z,2.20
2023-04-25T16:44:47.997Z,2.15
2023-04-25T16:47:18.631Z,2.30
2023-04-25T16:49:46.637Z,2.35
2023-04-25T16:52:13.553Z,2.15
2023-04-25T16:54:40.071Z,2.10
2023-04-25T16:57:10.375Z,2.35
2023-04-25T16:59:38.116Z,1.98
2023-04-25T17:02:05.065Z,1.90
2023-04-25T17:04:31.819Z,2.13
2023-04-25T17:06:58.543Z,2.10
2023-04-25T17:09:25.082Z,2.20
2023-04-25T17:11:51.613Z,5.57
2023-04-25T17:14:18.107Z,2.30
2023-04-25T17:16:44.814Z,1.98
2023-04-25T17:19:11.321Z,2.05
2023-04-25T17:21:37.839Z,2.30
2023-04-25T17:24:09.397Z,2.35
2023-04-25T17:26:36.952Z,1.90
2023-04-25T17:29:04.222Z,2.30
2023-04-25T17:31:31.154Z,2.20
2023-04-25T17:33:57.827Z,2.78
2023-04-25T17:36:24.630Z,2.50
2023-04-25T17:38:51.855Z,2.08
2023-04-25T17:41:18.793Z,2.28
2023-04-25T17:43:45.757Z,2.10
2023-04-25T17:46:12.265Z,1.95
2023-04-25T17:48:38.778Z,1.73
2023-04-25T17:51:06.450Z,2.17
2023-04-25T17:53:32.975Z,2.10
2023-04-25T17:55:59.422Z,2.08
2023-04-25T17:58:25.883Z,2.08
2023-04-25T18:00:52.561Z,1.85
2023-04-25T18:03:19.123Z,2.10
2023-04-25T18:05:45.711Z,2.30
2023-04-25T18:08:12.320Z,2.08
2023-04-25T18:10:39.030Z,1.98
2023-04-25T18:13:05.535Z,2.25
2023-04-25T18:15:32.021Z,2.08
2023-04-25T18:17:58.506Z,1.88
2023-04-25T18:20:25.734Z,1.52
2023-04-25T18:22:52.242Z,2.58
2023-04-25T18:25:18.917Z,1.92
2023-04-25T18:27:46.177Z,2.08
2023-04-25T18:30:13.033Z,2.00
2023-04-25T18:32:39.925Z,1.77
2023-04-25T18:35:06.944Z,1.63
2023-04-25T18:37:33.779Z,1.90
2023-04-25T18:40:05.943Z,2.25
2023-04-25T18:42:33.068Z,2.05
2023-04-25T18:44:59.619Z,1.80
2023-04-25T18:47:26.238Z,2.30
2023-04-25T18:49:52.723Z,2.13
2023-04-25T18:52:19.636Z,2.63
2023-04-25T18:54:46.159Z,2.38
2023-04-25T18:57:15.065Z,2.28
2023-04-25T18:59:42.978Z,2.42
2023-04-25T19:02:09.609Z,2.35
2023-04-25T19:04:36.768Z,2.53
2023-04-25T19:07:04.173Z,2.63
2023-04-25T19:09:31.008Z,2.60
2023-04-25T19:11:57.625Z,2.40
2023-04-25T19:14:24.098Z,2.63
2023-04-25T19:16:50.744Z,2.58
2023-04-25T19:19:17.261Z,3.00
2023-04-25T19:21:43.894Z,2.90
2023-04-25T19:24:11.364Z,2.78
2023-04-25T19:26:38.276Z,2.85
2023-04-25T19:29:07.907Z,2.47
2023-04-25T19:31:36.366Z,2.75
2023-04-25T19:34:04.882Z,3.05
2023-04-25T19:36:33.167Z,3.10
2023-04-25T19:39:03.822Z,3.47
2023-04-25T19:41:31.829Z,2.78
2023-04-25T19:44:00.970Z,2.83
2023-04-25T19:46:27.863Z,2.75
2023-04-25T19:48:55.394Z,3.53
2023-04-25T19:51:21.939Z,2.80
2023-04-25T19:53:48.466Z,3.60
2023-04-25T19:56:15.030Z,3.10
2023-04-25T19:58:41.536Z,2.70
2023-04-25T20:01:08.050Z,3.00
2023-04-25T20:03:34.836Z,2.47
2023-04-25T20:06:01.448Z,2.05
2023-04-25T20:08:27.996Z,2.47
2023-04-25T20:10:54.516Z,2.17
2023-04-25T20:13:21.013Z,1.30
2023-04-25T20:15:47.518Z,1.67
2023-04-25T20:18:14.429Z,1.60
2023-04-25T20:20:41.058Z,1.52
2023-04-25T20:23:07.550Z,1.50
2023-04-25T20:25:34.023Z,1.90
2023-04-25T20:28:00.578Z,1.40
2023-04-25T20:30:27.455Z,1.50
2023-04-25T20:32:54.123Z,1.30
2023-04-25T20:35:22.831Z,1.50
2023-04-25T20:37:50.694Z,1.30
2023-04-25T20:40:17.260Z,1.30
2023-04-25T20:42:43.918Z,1.33
2023-04-25T20:45:13.803Z,1.50
2023-04-25T20:47:41.226Z,1.42
2023-04-25T20:50:08.803Z,1.27
2023-04-25T20:52:38.744Z,1.35
2023-04-25T20:55:06.855Z,1.30
2023-04-25T20:57:33.345Z,1.58
2023-04-25T20:59:59.988Z,1.30
2023-04-25T21:02:26.565Z,1.65
2023-04-25T21:04:53.108Z,1.30
2023-04-25T21:07:19.964Z,2.05
2023-04-25T21:09:47.844Z,1.60
2023-04-25T21:12:14.491Z,1.90
2023-04-25T21:14:40.970Z,1.30
2023-04-25T21:17:07.555Z,1.30
2023-04-25T21:19:34.318Z,1.92
2023-04-25T21:22:02.313Z,1.50
2023-04-25T21:24:28.982Z,1.95
2023-04-25T21:26:55.438Z,1.52
2023-04-25T21:29:21.939Z,1.90
2023-04-25T21:31:48.468Z,1.48
2023-04-25T21:34:14.964Z,2.15
2023-04-25T21:36:41.537Z,2.33
2023-04-25T21:39:08.023Z,2.13
2023-04-25T21:41:34.546Z,2.30
2023-04-25T21:44:01.104Z,1.75
2023-04-25T21:46:27.625Z,1.60
2023-04-25T21:48:54.731Z,1.42
2023-04-25T21:51:22.069Z,1.98
2023-04-25T21:53:48.535Z,2.10
2023-04-25T21:56:15.059Z,1.98
2023-04-25T21:58:41.610Z,1.83
2023-04-25T22:01:08.128Z,2.20
2023-04-25T22:03:34.936Z,1.92
2023-04-25T22:06:01.618Z,1.60
2023-04-25T22:08:28.102Z,1.92
2023-04-25T22:10:55.241Z,1.63
2023-04-25T22:13:22.781Z,1.92
2023-04-25T22:15:49.426Z,2.22
2023-04-25T22:18:16.373Z,2.53
2023-04-25T22:20:44.191Z,1.90
2023-04-25T22:23:11.984Z,1.80
2023-04-25T22:25:38.672Z,1.90
2023-04-25T22:28:05.288Z,1.88
2023-04-25T22:30:32.415Z,1.83
2023-04-25T22:32:58.955Z,2.58
2023-04-25T22:35:25.604Z,2.03
2023-04-25T22:37:52.318Z,3.08
2023-04-25T22:40:19.043Z,2.47
2023-04-25T22:42:45.592Z,1.88
2023-04-25T22:45:12.405Z,2.78
2023-04-25T22:47:39.488Z,2.30
2023-04-25T22:50:08.498Z,2.30
2023-04-25T22:52:35.131Z,2.75
2023-04-25T22:55:03.172Z,2.15
2023-04-25T22:57:30.034Z,2.55
2023-04-25T22:59:56.546Z,2.28
2023-04-25T23:02:23.291Z,3.15
2023-04-25T23:04:50.414Z,2.45
2023-04-25T23:07:17.534Z,2.30
2023-04-25T23:09:45.101Z,2.65
2023-04-25T23:12:11.693Z,2.10
2023-04-25T23:14:38.507Z,2.40
2023-04-25T23:17:05.141Z,2.67
2023-04-25T23:19:31.712Z,2.97
2023-04-25T23:21:58.627Z,2.67
2023-04-25T23:24:25.640Z,2.45
2023-04-25T23:26:52.101Z,2.58
2023-04-25T23:29:18.572Z,2.40
2023-04-25T23:31:45.027Z,2.20
2023-04-25T23:34:11.519Z,3.33
2023-04-25T23:36:38.026Z,2.58
2023-04-25T23:39:05.544Z,2.08
2023-04-25T23:41:32.218Z,2.25
2023-04-25T23:43:58.944Z,2.38
2023-04-25T23:46:26.015Z,2.10
2023-04-25T23:48:52.825Z,1.90
2023-04-25T23:51:19.651Z,2.13
2023-04-25T23:53:46.173Z,2.90
2023-04-25T23:56:12.644Z,2.25
2023-04-25T23:58:39.193Z,2.20
